Grandview, WA (98930)

6:53 AM PDT on October 24, 2014 (GMT -0700)
Hillcrest | Change Station
CLOSE
Current Station
Personal Weather Station
Location: Grandview, WA
Elevation: 831 ft
Nearby Weather Stations
Active Advisory: Special Statement

Elev 831 ft 46.25 °N, 119.92 °W | Updated 11 minutes ago

Overcast
Overcast
46.1 °F
Feels Like 46 °F
N
0.0
Wind Variable Wind from ESE
Gusts 4.0 mph

Today
High -- | Low -- °F
--% Chance of Precip.
Yesterday
High -- | Low -- °F
Precip. -- in
7:29 AM 5:57 PM
New Moon, 0% visible
Pressure 30.07 in
Visibility 10.0 miles
Clouds Clear
Windchill 46 °F
Dew Point 43 °F
Humidity 89%
Rainfall 0.00 in
Snow Depth Not available.
UV 0 out of 12
Pollen 1.40 out of 12
Air Quality Not available.
Flu Activity Sporadic
METAR KYKM 241253Z 00000KT 10SM CLR 06/03 A3006 RMK AO2 SLP182 T00560033

More Conditions Fewer Conditions

Pressure 30.07 in
Visibility 10.0 miles
Clouds Clear
Windchill 46 °F
Dew Point 43 °F
Humidity 89%
Rainfall 0.00 in
Snow Depth Not available.
UV 0 out of 12
Pollen 1.40 out of 12
Air Quality Not available.
Flu Activity Sporadic
METAR KYKM 241253Z 00000KT 10SM CLR 06/03 A3006 RMK AO2 SLP182 T00560033

More Conditions Fewer Conditions

10-Day Weather Forecast

Almanac

Astronomy

Oct. 24, 2014 Rise Set
Actual Time 7:29 AM PDT 5:57 PM PDT
Civil Twilight 6:58 AM PDT 6:28 PM PDT
Nautical Twilight 6:23 AM PDT 7:03 PM PDT
Astronomical Twilight 5:48 AM PDT 7:37 PM PDT
Moon 8:15 AM PDT 6:37 PM PDT
Length of Visible Light 11h 29m
Length of Day
10h 28m
Tomorrow will be 3m 4s shorter.
New Moon, 0% of the Moon is Illuminated
Today
New Moon
Oct 30
First Quarter
Nov 6
Full
Nov 14
Last Quarter
Nov 22
New

Today's Extremes

State Highs State Lows

Community

WunderPhotos

Upload Photos

1,764,551 photos uploaded!

WunderBlogs® & News

By Dr. Jeff Masters
Director of Meteorology, Weather Underground
By Kari Strenfel
Meteorologist, Weather Underground
By Christopher C. Burt
Weather Historian, Weather Underground
October 24, 2014
October 24, 2014
October 24, 2014

Nearby

Snow Depth

Station Depth Elevation
Lost Horse 0 in 5000 ft
Trough 0 in 5300 ft
Grouse Camp 0 in 5380 ft
Potato Hill 0 in 4500 ft
Blewett Pass 0 in 4270 ft

Earthquake Activity

City Distance Mag. Time & Date
No recent earthquake activity has been reported nearby.
Minimum magnitude displayed is 2.5.

Coastal Water Temperatures

Place Temperature
No Stations Reporting

Nearby Weather Stations